Ocean Phoenix — KCAK — position and weather

sailwx.info

Track history (hours):
 
Tides and Currents Weather Stations Pressure Air Temp Water Temp Dewpoint Dewpoint Depression Visibility Wind Speed Wind Dir Waves Ship Positions

Ocean Phoenix

Owner: PHOENIX PROCESSOR LTD. PARTNERSHIP, SEATTLE, WA. More information available from US FCC via Universal Licensing System and Coast Guard Vessel Documentation Center.

Last reported at 2014-Oct-20 07:27 UTC. Time now 2014-Oct-21 13:43 UTC.
Position N 48°08' W 125°15'.

Length 206 m; draft 6.6 m.

Type: Fishing. MMSI: 366588000.

Date/timePositionNaut miles runAvg speedWind from/ knotsBaromVisibWave heightAir tempDewpointWater temp
2014-Oct-20 07:27N 48°08' W 125°15'8 4.0
2014-Oct-20 05:33N 48°15' W 125°11'2 2.1
2014-Oct-20 04:23N 48°17' W 125°10'5 6.2
2014-Oct-20 03:32N 48°22' W 125°08'6 6.2
2014-Oct-20 02:33N 48°28' W 125°05'6 5.9
2014-Oct-20 01:33N 48°31' W 124°57'1110.6
2014-Oct-20 00:33N 48°30' W 124°41'1212.4
2014-Oct-19 23:33N 48°25' W 124°24'1313.2
2014-Oct-19 22:33N 48°20' W 124°06'1312.9
2014-Oct-19 21:33N 48°17' W 123°47'1211.9
2014-Oct-19 20:33N 48°14' W 123°30'10 9.7
2014-Oct-19 19:33N 48°09' W 123°17'1414.1
2014-Oct-19 18:32N 48°12' W 122°56'1414.6
2014-Oct-19 17:33N 48°04' W 122°38'1616.1
2014-Oct-19 16:33N 47°50' W 122°27'1312.9
2014-Oct-19 15:33N 47°37' W 122°23'0 0.4
2014-Oct-19 14:34N 47°38' W 122°23'0 0.0
2014-Oct-19 13:33N 47°38' W 122°23'0 0.0
2014-Oct-19 12:33N 47°38' W 122°23'0 0.0
2014-Oct-19 11:33N 47°38' W 122°23'0 0.0
2014-Oct-19 10:33N 47°38' W 122°23'0 0.0
2014-Oct-19 09:33N 47°38' W 122°23'0 0.0
2014-Oct-19 08:33N 47°38' W 122°23'0 0.0
2014-Oct-19 07:33N 47°38' W 122°23'0 0.0
2014-Oct-19 06:33N 47°38' W 122°23'0 0.0
2014-Oct-19 05:30N 47°38' W 122°23'0 0.0
2014-Oct-19 04:33N 47°38' W 122°23'0 0.0
2014-Oct-19 03:33N 47°38' W 122°23'0 0.0
2014-Oct-19 02:33N 47°38' W 122°23'0 0.0
2014-Oct-19 01:33N 47°38' W 122°23'0 0.0
2014-Oct-19 00:33N 47°38' W 122°23'0 0.0
2014-Oct-18 23:33N 47°38' W 122°23'0 0.0
2014-Oct-18 22:30N 47°38' W 122°23'0 0.0
2014-Oct-18 21:33N 47°38' W 122°23'0 0.0
2014-Oct-18 20:33N 47°38' W 122°23'0 0.0
2014-Oct-18 19:33N 47°38' W 122°23'0 0.0
2014-Oct-18 18:33N 47°38' W 122°23'0 0.0
2014-Oct-18 17:32N 47°38' W 122°23'0 0.0
2014-Oct-18 16:32N 47°38' W 122°23'0 0.0
2014-Oct-18 15:32N 47°38' W 122°23'0 0.0
2014-Oct-18 14:32N 47°38' W 122°23'0 0.0
2014-Oct-18 13:32N 47°38' W 122°23'0 0.0
2014-Oct-18 12:32N 47°38' W 122°23'0 0.0
2014-Oct-18 11:32N 47°38' W 122°23'0 0.0
2014-Oct-18 10:32N 47°38' W 122°23'0 0.0
2014-Oct-18 09:32N 47°38' W 122°23'0 0.0
2014-Oct-18 08:32N 47°38' W 122°23'0 0.0
2014-Oct-18 07:32N 47°38' W 122°23'0 0.0
2014-Oct-18 06:32N 47°38' W 122°23'0 0.0
2014-Oct-18 05:32N 47°38' W 122°23'0 0.0
2014-Oct-18 04:32N 47°38' W 122°23'0 0.0
2014-Oct-18 03:32N 47°38' W 122°23'0 0.0
2014-Oct-18 02:32N 47°38' W 122°23'0 0.0
2014-Oct-18 01:32N 47°38' W 122°23'0 0.0
2014-Oct-18 00:32N 47°38' W 122°23'0 0.0
2014-Oct-17 23:32N 47°38' W 122°23'0 0.0
2014-Oct-17 22:32N 47°38' W 122°23'0 0.0
2014-Oct-17 21:32N 47°38' W 122°23'0 0.0
2014-Oct-17 20:32N 47°38' W 122°23'0 0.0
2014-Oct-17 19:32N 47°38' W 122°23'0 0.0
2014-Oct-17 18:32N 47°38' W 122°23'0 0.0
2014-Oct-17 17:32N 47°38' W 122°23'0 0.0
2014-Oct-17 16:32N 47°38' W 122°23'0 0.0
2014-Oct-17 15:32N 47°38' W 122°23'0 0.3
2014-Oct-17 14:32N 47°37' W 122°23'0 0.3
2014-Oct-17 13:32N 47°38' W 122°23'0 0.0
2014-Oct-17 12:32N 47°38' W 122°23'0 0.0
2014-Oct-17 11:32N 47°38' W 122°23'0 0.0
2014-Oct-17 10:32N 47°38' W 122°23'0 0.0
2014-Oct-17 09:33N 47°38' W 122°23'0 0.0
2014-Oct-17 08:33N 47°38' W 122°23'0 0.0
2014-Oct-17 07:33N 47°38' W 122°23'0 0.0
2014-Oct-17 06:33N 47°38' W 122°23'0 0.0
2014-Oct-17 05:33N 47°38' W 122°23'0 0.0
2014-Oct-17 04:33N 47°38' W 122°23'0 0.0
2014-Oct-17 03:33N 47°38' W 122°23'0 0.0
2014-Oct-17 02:33N 47°38' W 122°23'0 0.0
2014-Oct-17 01:33N 47°38' W 122°23'0 0.0
2014-Oct-17 00:33N 47°38' W 122°23'0 0.0
2014-Oct-16 23:33N 47°38' W 122°23'0 0.0
2014-Oct-16 22:33N 47°38' W 122°23'0 0.0
2014-Oct-16 21:33N 47°38' W 122°23'0 0.0
2014-Oct-16 20:33N 47°38' W 122°23'0 0.0
2014-Oct-16 19:33N 47°38' W 122°23'0 0.0
2014-Oct-16 18:33N 47°38' W 122°23'0 0.0
2014-Oct-16 17:33N 47°38' W 122°23'0 0.0
2014-Oct-16 16:33N 47°38' W 122°23'0 0.0
2014-Oct-16 15:33N 47°38' W 122°23'0 0.0
2014-Oct-16 14:33N 47°38' W 122°23'0 0.0
2014-Oct-16 13:33N 47°38' W 122°23'0 0.0
2014-Oct-16 12:33N 47°38' W 122°23'0 0.0
2014-Oct-16 11:33N 47°38' W 122°23'0 0.0
2014-Oct-16 10:33N 47°38' W 122°23'0 0.0
2014-Oct-16 09:33N 47°38' W 122°23'0 0.0
2014-Oct-16 08:33N 47°38' W 122°23'0 0.0
2014-Oct-16 07:33N 47°38' W 122°23'0 0.0
2014-Oct-16 06:33N 47°38' W 122°23'0 0.0
2014-Oct-16 05:33N 47°38' W 122°23'0 0.0
2014-Oct-16 04:33N 47°38' W 122°23'0 0.0
2014-Oct-16 03:33N 47°38' W 122°23'0 0.0
2014-Oct-16 02:33N 47°38' W 122°23'0 0.0
2014-Oct-16 01:33N 47°38' W 122°23'0 0.0
2014-Oct-16 00:33N 47°38' W 122°23'0 0.0
2014-Oct-15 23:33N 47°38' W 122°23'0 0.0
2014-Oct-15 22:33N 47°38' W 122°23'0 0.0
2014-Oct-15 21:33N 47°38' W 122°23'0 0.0
2014-Oct-15 20:33N 47°38' W 122°23'0 0.0
2014-Oct-15 19:33N 47°38' W 122°23'0 0.0
2014-Oct-15 18:33N 47°38' W 122°23'0 0.0
2014-Oct-15 17:33N 47°38' W 122°23'3 2.8
2014-Oct-15 16:33N 47°39' W 122°27'1515.4
2014-Oct-15 15:33N 47°54' W 122°29'1717.2
2014-Oct-15 14:33N 48°08' W 122°43'1817.6
2014-Oct-15 13:33N 48°12' W 123°09'1212.4
2014-Oct-15 12:33N 48°11' W 123°28'9 9.3
2014-Oct-15 11:33N 48°13' W 123°41'1111.5
2014-Oct-15 10:33N 48°15' W 123°58'1211.6
2014-Oct-15 09:33N 48°20' W 124°14'1110.9
2014-Oct-15 08:33N 48°24' W 124°29'1211.8
2014-Oct-15 07:33N 48°29' W 124°45'9 9.4
2014-Oct-15 06:33N 48°29' W 124°60'8 8.1
2014-Oct-15 05:33N 48°29' W 125°12'9 8.5
2014-Oct-15 04:33N 48°28' W 125°25'8 8.5
2014-Oct-15 03:33N 48°27' W 125°37'9 8.6
2014-Oct-15 02:33N 48°26' W 125°50'7 7.2
2014-Oct-15 01:33N 48°25' W 126°01'5 5.1
2014-Oct-15 00:33N 48°20' W 126°03'9 8.6
2014-Oct-14 23:33N 48°12' W 125°59'9 9.4
2014-Oct-14 22:33N 48°03' W 125°55'  
Track history (hours):
 
Tides and Currents Weather Stations Pressure Air Temp Water Temp Dewpoint Dewpoint Depression Visibility Wind Speed Wind Dir Waves Ship Positions

Ocean Phoenix

Owner: PHOENIX PROCESSOR LTD. PARTNERSHIP, SEATTLE, WA. More information available from US FCC via Universal Licensing System and Coast Guard Vessel Documentation Center.

Last reported at 2014-Oct-20 07:27 UTC. Time now 2014-Oct-21 13:43 UTC.
Position N 48°08' W 125°15'.

Length 206 m; draft 6.6 m.

Type: Fishing. MMSI: 366588000.

Date/timePositionNaut miles runAvg speedWind from/ knotsBaromVisibWave heightAir tempDewpointWater temp
2014-Oct-20 07:27N 48°08' W 125°15'8 4.0
2014-Oct-20 05:33N 48°15' W 125°11'2 2.1
2014-Oct-20 04:23N 48°17' W 125°10'5 6.2
2014-Oct-20 03:32N 48°22' W 125°08'6 6.2
2014-Oct-20 02:33N 48°28' W 125°05'6 5.9
2014-Oct-20 01:33N 48°31' W 124°57'1110.6
2014-Oct-20 00:33N 48°30' W 124°41'1212.4
2014-Oct-19 23:33N 48°25' W 124°24'1313.2
2014-Oct-19 22:33N 48°20' W 124°06'1312.9
2014-Oct-19 21:33N 48°17' W 123°47'1211.9
2014-Oct-19 20:33N 48°14' W 123°30'10 9.7
2014-Oct-19 19:33N 48°09' W 123°17'1414.1
2014-Oct-19 18:32N 48°12' W 122°56'1414.6
2014-Oct-19 17:33N 48°04' W 122°38'1616.1
2014-Oct-19 16:33N 47°50' W 122°27'1312.9
2014-Oct-19 15:33N 47°37' W 122°23'0 0.4
2014-Oct-19 14:34N 47°38' W 122°23'0 0.0
2014-Oct-19 13:33N 47°38' W 122°23'0 0.0
2014-Oct-19 12:33N 47°38' W 122°23'0 0.0
2014-Oct-19 11:33N 47°38' W 122°23'0 0.0
2014-Oct-19 10:33N 47°38' W 122°23'0 0.0
2014-Oct-19 09:33N 47°38' W 122°23'0 0.0
2014-Oct-19 08:33N 47°38' W 122°23'0 0.0
2014-Oct-19 07:33N 47°38' W 122°23'0 0.0
2014-Oct-19 06:33N 47°38' W 122°23'0 0.0
2014-Oct-19 05:30N 47°38' W 122°23'0 0.0
2014-Oct-19 04:33N 47°38' W 122°23'0 0.0
2014-Oct-19 03:33N 47°38' W 122°23'0 0.0
2014-Oct-19 02:33N 47°38' W 122°23'0 0.0
2014-Oct-19 01:33N 47°38' W 122°23'0 0.0
2014-Oct-19 00:33N 47°38' W 122°23'0 0.0
2014-Oct-18 23:33N 47°38' W 122°23'0 0.0
2014-Oct-18 22:30N 47°38' W 122°23'0 0.0
2014-Oct-18 21:33N 47°38' W 122°23'0 0.0
2014-Oct-18 20:33N 47°38' W 122°23'0 0.0
2014-Oct-18 19:33N 47°38' W 122°23'0 0.0
2014-Oct-18 18:33N 47°38' W 122°23'0 0.0
2014-Oct-18 17:32N 47°38' W 122°23'0 0.0
2014-Oct-18 16:32N 47°38' W 122°23'0 0.0
2014-Oct-18 15:32N 47°38' W 122°23'0 0.0
2014-Oct-18 14:32N 47°38' W 122°23'0 0.0
2014-Oct-18 13:32N 47°38' W 122°23'0 0.0
2014-Oct-18 12:32N 47°38' W 122°23'0 0.0
2014-Oct-18 11:32N 47°38' W 122°23'0 0.0
2014-Oct-18 10:32N 47°38' W 122°23'0 0.0
2014-Oct-18 09:32N 47°38' W 122°23'0 0.0
2014-Oct-18 08:32N 47°38' W 122°23'0 0.0
2014-Oct-18 07:32N 47°38' W 122°23'0 0.0
2014-Oct-18 06:32N 47°38' W 122°23'0 0.0
2014-Oct-18 05:32N 47°38' W 122°23'0 0.0
2014-Oct-18 04:32N 47°38' W 122°23'0 0.0
2014-Oct-18 03:32N 47°38' W 122°23'0 0.0
2014-Oct-18 02:32N 47°38' W 122°23'0 0.0
2014-Oct-18 01:32N 47°38' W 122°23'0 0.0
2014-Oct-18 00:32N 47°38' W 122°23'0 0.0
2014-Oct-17 23:32N 47°38' W 122°23'0 0.0
2014-Oct-17 22:32N 47°38' W 122°23'0 0.0
2014-Oct-17 21:32N 47°38' W 122°23'0 0.0
2014-Oct-17 20:32N 47°38' W 122°23'0 0.0
2014-Oct-17 19:32N 47°38' W 122°23'0 0.0
2014-Oct-17 18:32N 47°38' W 122°23'0 0.0
2014-Oct-17 17:32N 47°38' W 122°23'0 0.0
2014-Oct-17 16:32N 47°38' W 122°23'0 0.0
2014-Oct-17 15:32N 47°38' W 122°23'0 0.3
2014-Oct-17 14:32N 47°37' W 122°23'0 0.3
2014-Oct-17 13:32N 47°38' W 122°23'0 0.0
2014-Oct-17 12:32N 47°38' W 122°23'0 0.0
2014-Oct-17 11:32N 47°38' W 122°23'0 0.0
2014-Oct-17 10:32N 47°38' W 122°23'0 0.0
2014-Oct-17 09:33N 47°38' W 122°23'0 0.0
2014-Oct-17 08:33N 47°38' W 122°23'0 0.0
2014-Oct-17 07:33N 47°38' W 122°23'0 0.0
2014-Oct-17 06:33N 47°38' W 122°23'0 0.0
2014-Oct-17 05:33N 47°38' W 122°23'0 0.0
2014-Oct-17 04:33N 47°38' W 122°23'0 0.0
2014-Oct-17 03:33N 47°38' W 122°23'0 0.0
2014-Oct-17 02:33N 47°38' W 122°23'0 0.0
2014-Oct-17 01:33N 47°38' W 122°23'0 0.0
2014-Oct-17 00:33N 47°38' W 122°23'0 0.0
2014-Oct-16 23:33N 47°38' W 122°23'0 0.0
2014-Oct-16 22:33N 47°38' W 122°23'0 0.0
2014-Oct-16 21:33N 47°38' W 122°23'0 0.0
2014-Oct-16 20:33N 47°38' W 122°23'0 0.0
2014-Oct-16 19:33N 47°38' W 122°23'0 0.0
2014-Oct-16 18:33N 47°38' W 122°23'0 0.0
2014-Oct-16 17:33N 47°38' W 122°23'0 0.0
2014-Oct-16 16:33N 47°38' W 122°23'0 0.0
2014-Oct-16 15:33N 47°38' W 122°23'0 0.0
2014-Oct-16 14:33N 47°38' W 122°23'0 0.0
2014-Oct-16 13:33N 47°38' W 122°23'0 0.0
2014-Oct-16 12:33N 47°38' W 122°23'0 0.0
2014-Oct-16 11:33N 47°38' W 122°23'0 0.0
2014-Oct-16 10:33N 47°38' W 122°23'0 0.0
2014-Oct-16 09:33N 47°38' W 122°23'0 0.0
2014-Oct-16 08:33N 47°38' W 122°23'0 0.0
2014-Oct-16 07:33N 47°38' W 122°23'0 0.0
2014-Oct-16 06:33N 47°38' W 122°23'0 0.0
2014-Oct-16 05:33N 47°38' W 122°23'0 0.0
2014-Oct-16 04:33N 47°38' W 122°23'0 0.0
2014-Oct-16 03:33N 47°38' W 122°23'0 0.0
2014-Oct-16 02:33N 47°38' W 122°23'0 0.0
2014-Oct-16 01:33N 47°38' W 122°23'0 0.0
2014-Oct-16 00:33N 47°38' W 122°23'0 0.0
2014-Oct-15 23:33N 47°38' W 122°23'0 0.0
2014-Oct-15 22:33N 47°38' W 122°23'0 0.0
2014-Oct-15 21:33N 47°38' W 122°23'0 0.0
2014-Oct-15 20:33N 47°38' W 122°23'0 0.0
2014-Oct-15 19:33N 47°38' W 122°23'0 0.0
2014-Oct-15 18:33N 47°38' W 122°23'0 0.0
2014-Oct-15 17:33N 47°38' W 122°23'3 2.8
2014-Oct-15 16:33N 47°39' W 122°27'1515.4
2014-Oct-15 15:33N 47°54' W 122°29'1717.2
2014-Oct-15 14:33N 48°08' W 122°43'1817.6
2014-Oct-15 13:33N 48°12' W 123°09'1212.4
2014-Oct-15 12:33N 48°11' W 123°28'9 9.3
2014-Oct-15 11:33N 48°13' W 123°41'1111.5
2014-Oct-15 10:33N 48°15' W 123°58'1211.6
2014-Oct-15 09:33N 48°20' W 124°14'1110.9
2014-Oct-15 08:33N 48°24' W 124°29'1211.8
2014-Oct-15 07:33N 48°29' W 124°45'9 9.4
2014-Oct-15 06:33N 48°29' W 124°60'8 8.1
2014-Oct-15 05:33N 48°29' W 125°12'9 8.5
2014-Oct-15 04:33N 48°28' W 125°25'8 8.5
2014-Oct-15 03:33N 48°27' W 125°37'9 8.6
2014-Oct-15 02:33N 48°26' W 125°50'7 7.2
2014-Oct-15 01:33N 48°25' W 126°01'5 5.1
2014-Oct-15 00:33N 48°20' W 126°03'9 8.6
2014-Oct-14 23:33N 48°12' W 125°59'9 9.4
2014-Oct-14 22:33N 48°03' W 125°55'  

Dump ship's entire track history